KOPN

Thomaston-Upson County Airport

Thomaston, Georgia, USA
METAR KOPN 181555Z AUTO 08006KT 10SM CLR 20/06 A3036 RMK AO2
Observed Flight Rules
Oct-18 @ 15:55 UTC (17 minutes ago) Visual Flight Rules
Wind Visibility Clouds
80° at 6 knots 10 miles
  • Clear skies
Temperatures Readings
Current 20°C / 68°F
Dewpoint 6°C / 43°F
Humidity 40%
Altimeter 30.36" Hg
Pressure 1028 hPa
Elevation 243
METAR KOPN 181555Z AUTO 08006KT 10SM CLR 20/06 A3036 RMK AO2
Observed Flight Rules
Oct-18 @ 15:55 UTC
(17 minutes ago)
VFR
Wind Visibility
80° at 6 knots 10 miles
Clouds
  • Clear skies
Temperature Dewpoint
20°C / 68°F 6°C / 43°F
Humidity Altimeter Pressure
40% 30.36" Hg 1028 hPa